ADDS METAR Data INFO
IDs: Format: Raw Decoded Include TAF

Data at: 1924 UTC 19 Jul 2018

KLWA 191915Z AUTO 17013G18KT 10SM SCT060 29/11 A2997 RMK AO2 T02900112
KLWA 191855Z AUTO 15007G15KT 10SM SCT060 29/11 A2997 RMK AO2 T02900107
KLWA 191835Z AUTO 18011G14KT 140V200 10SM SCT060 SCT120 29/11 A2998 RMK AO2 T02870111
KLWA 191815Z AUTO 17009G15KT 130V190 10SM SCT060 29/11 A2998 RMK AO2 T02900110
KLWA 191755Z AUTO 18011G16KT 10SM SCT060 28/11 A2999 RMK AO2 T02790112 10287 20171
KLWA 191735Z AUTO 19010G14KT 10SM SCT060 29/12 A2999 RMK AO2 T02870115
KLWA 191715Z AUTO 15007G15KT 110V190 10SM SCT060 28/12 A2999 RMK AO2 T02830122
KLWA 191655Z AUTO 18008G16KT 10SM SCT060 29/12 A2999 RMK AO2 T02850118
KLWA 191635Z AUTO 17009G15KT 10SM SCT060 28/11 A2999 RMK AO2 T02830113
KLWA 191615Z AUTO 19008KT 160V220 10SM SCT050 SCT060 28/12 A3000 RMK AO2 T02750116
KLWA 191555Z AUTO 17009KT 10SM SCT049 SCT060 28/12 A3000 RMK AO2 T02770124
KLWA 191535Z AUTO 19005KT 10SM CLR 27/15 A3001 RMK AO2 T02730150
KLWA 191515Z AUTO 18008KT 10SM CLR 26/14 A3002 RMK AO2 T02640141
KLWA 191455Z AUTO 18007KT 10SM CLR 26/15 A3002 RMK AO2 T02600149
KLWA 191435Z AUTO 17007KT 10SM CLR 25/15 A3003 RMK AO2 T02510150
KLWA 191415Z AUTO 17007KT 10SM CLR 25/15 A3002 RMK AO2 T02450149
KLWA 191355Z AUTO 18006KT 10SM CLR 24/15 A3003 RMK AO2 T02360151
KLWA 191335Z AUTO 17005KT 10SM CLR 23/15 A3004 RMK AO2 T02250153
KLWA 191315Z AUTO 16005KT 10SM CLR 21/15 A3004 RMK AO2 T02130151
KLWA 191255Z AUTO 15003KT 10SM CLR 20/15 A3004 RMK AO2 T02000148
KLWA 191235Z AUTO 14003KT 10SM CLR 19/15 A3004 RMK AO2 T01890145
KLWA 191215Z AUTO 00000KT 10SM CLR 18/14 A3004 RMK AO2 T01810141
KLWA 191155Z AUTO 11003KT 10SM CLR 17/14 A3003 RMK AO2 T01690138 10169 20134
KLWA 191135Z AUTO 00000KT 10SM CLR 17/14 A3004 RMK AO2 T01650135
KLWA 191115Z AUTO 00000KT 10SM CLR 16/13 A3004 RMK AO2 T01580133
KLWA 191055Z AUTO 00000KT 10SM CLR 15/13 A3004 RMK AO2 T01480128
KLWA 191035Z AUTO 00000KT 10SM CLR 15/13 A3004 RMK AO2 T01470129
KLWA 191015Z AUTO 00000KT 10SM CLR 15/13 A3004 RMK AO2 T01450130
KLWA 190955Z AUTO 00000KT 10SM CLR 14/13 A3004 RMK AO2 T01430127
KLWA 190935Z AUTO 00000KT 10SM CLR 14/13 A3004 RMK AO2 T01420127
KLWA 190915Z AUTO 00000KT 10SM CLR 14/13 A3004 RMK AO2 T01400127
KLWA 190855Z AUTO 00000KT 10SM CLR 15/13 A3004 RMK AO2 T01450130
KLWA 190835Z AUTO 00000KT 10SM CLR 14/13 A3004 RMK AO2 T01440129
KLWA 190815Z AUTO 08003KT 10SM CLR 14/13 A3005 RMK AO2 T01410129
KLWA 190755Z AUTO 00000KT 10SM CLR 14/13 A3005 RMK AO2 T01400128
KLWA 190735Z AUTO 00000KT 10SM CLR 14/13 A3005 RMK AO2 T01420129
KLWA 190715Z AUTO 00000KT 10SM CLR 14/13 A3005 RMK AO2 T01400127
KLWA 190655Z AUTO 00000KT 10SM CLR 14/13 A3005 RMK AO2 T01420130
KLWA 190635Z AUTO 00000KT 10SM CLR 14/13 A3005 RMK AO2 T01390127
KLWA 190615Z AUTO 00000KT 10SM CLR 15/13 A3005 RMK AO2 T01450130
KLWA 190555Z AUTO 00000KT 10SM CLR 15/13 A3005 RMK AO2 T01450130 10220 20142 402440122
KLWA 190535Z AUTO 00000KT 10SM CLR 15/13 A3005 RMK AO2 T01450130
KLWA 190515Z AUTO 09003KT 10SM CLR 15/13 A3005 RMK AO2 T01450131
KLWA 190455Z AUTO 00000KT 10SM CLR 15/14 A3005 RMK AO2 T01510135
KLWA 190435Z AUTO 00000KT 10SM CLR 15/13 A3005 RMK AO2 T01500133
KLWA 190415Z AUTO 00000KT 10SM CLR 15/13 A3005 RMK AO2 T01480129
KLWA 190355Z AUTO 00000KT 10SM CLR 15/13 A3005 RMK AO2 T01500133
KLWA 190335Z AUTO 00000KT 10SM CLR 16/13 A3006 RMK AO2 T01550134
KLWA 190315Z AUTO 00000KT 10SM CLR 15/13 A3006 RMK AO2 T01540131
KLWA 190255Z AUTO 00000KT 10SM CLR 16/14 A3006 RMK AO2 T01600135
KLWA 190235Z AUTO 00000KT 10SM CLR 16/14 A3006 RMK AO2 T01610135
KLWA 190215Z AUTO 00000KT 10SM CLR 16/13 A3006 RMK AO2 T01620134
KLWA 190155Z AUTO 00000KT 10SM CLR 17/14 A3005 RMK AO2 T01710135
KLWA 190135Z AUTO 00000KT 10SM CLR 19/13 A3005 RMK AO2 T01880131
KLWA 190115Z AUTO 00000KT 10SM CLR 20/13 A3005 RMK AO2 T01970127
KLWA 190055Z AUTO 01004KT 10SM CLR 20/13 A3006 RMK AO2 T02030126
KLWA 190035Z AUTO 36004KT 10SM CLR 21/13 A3006 RMK AO2 T02100126
KLWA 190015Z AUTO 36004KT 10SM CLR 22/13 A3006 RMK AO2 T02150131
KLWA 182355Z AUTO 36005KT 10SM CLR 22/13 A3006 RMK AO2 T02200131 10244 20220
KLWA 182335Z AUTO 35005KT 10SM CLR 22/14 A3006 RMK AO2 T02230136
KLWA 182315Z AUTO 36009KT 10SM CLR 23/13 A3006 RMK AO2 T02250133
KLWA 182255Z AUTO 34007KT 10SM CLR 23/13 A3006 RMK AO2 T02250132
KLWA 182235Z AUTO 35009KT 10SM CLR 23/13 A3007 RMK AO2 T02300134
KLWA 182215Z AUTO 33009KT 10SM CLR 23/13 A3007 RMK AO2 T02310132
KLWA 182155Z AUTO 33009G14KT 10SM CLR 23/13 A3008 RMK AO2 T02330127
KLWA 182135Z AUTO 33008KT 10SM CLR 23/13 A3008 RMK AO2 T02310130
KLWA 182115Z AUTO 31008KT 10SM CLR 24/12 A3008 RMK AO2 T02350124
KLWA 182055Z AUTO 32008KT 10SM CLR 24/13 A3009 RMK AO2 T02350125
KLWA 182035Z AUTO 32010KT 10SM CLR 24/12 A3009 RMK AO2 T02370117
KLWA 182015Z AUTO 33006KT 10SM CLR 24/11 A3009 RMK AO2 T02380112
KLWA 181955Z AUTO 34008KT 10SM CLR 24/11 A3010 RMK AO2 T02360111
KLWA 181935Z AUTO 31007KT 10SM CLR 24/11 A3010 RMK AO2 T02370107
KLWA 181915Z AUTO 31009KT 10SM CLR 24/12 A3010 RMK AO2 T02350121
KLWA 181855Z AUTO 34008KT 10SM CLR 24/12 A3011 RMK AO2 T02370119
KLWA 181835Z AUTO 32008KT 10SM CLR 23/12 A3011 RMK AO2 T02300118
KLWA 181815Z AUTO 34008KT 10SM CLR 23/12 A3012 RMK AO2 T02310118
KLWA 181755Z AUTO 33008KT 10SM CLR 23/12 A3012 RMK AO2 T02320120 10236 20159
KLWA 181735Z AUTO 34007KT 300V360 10SM CLR 23/12 A3012 RMK AO2 T02280124
KLWA 181715Z AUTO 34008KT 10SM CLR 23/12 A3012 RMK AO2 T02250123
KLWA 181655Z AUTO 33009KT 10SM CLR 22/12 A3012 RMK AO2 T02240121
KLWA 181635Z AUTO 31008KT 10SM CLR 23/12 A3012 RMK AO2 T02260119
KLWA 181615Z AUTO 33008KT 300V360 10SM CLR 23/12 A3012 RMK AO2 T02260116
KLWA 181555Z AUTO 32006KT 10SM CLR 23/12 A3013 RMK AO2 T02250118
KLWA 181535Z AUTO 03006KT 10SM CLR 23/09 A3014 RMK AO2 T02290090
KLWA 181515Z AUTO 02007KT 10SM CLR 23/10 A3014 RMK AO2 T02250099
KLWA 181455Z AUTO 35006KT 10SM CLR 22/11 A3014 RMK AO2 T02150108
KLWA 181435Z AUTO 04004KT 10SM CLR 21/12 A3014 RMK AO2 T02090118
KLWA 181415Z AUTO 01004KT 10SM CLR 21/13 A3015 RMK AO2 T02050125
KLWA 181355Z AUTO 00000KT 10SM CLR 20/13 A3015 RMK AO2 T01980125
KLWA 181335Z AUTO 00000KT 10SM CLR 19/13 A3015 RMK AO2 T01930128
KLWA 181315Z AUTO 04004KT 10SM CLR 19/13 A3015 RMK AO2 T01880128
KLWA 181255Z AUTO 07004KT 10SM CLR 18/13 A3014 RMK AO2 T01790128
KLWA 181235Z AUTO 08003KT 10SM CLR 17/13 A3015 RMK AO2 T01680125
KLWA 181215Z AUTO 07003KT 10SM CLR 16/13 A3015 RMK AO2 T01630125
KLWA 181155Z AUTO 05003KT 10SM CLR 16/13 A3015 RMK AO2 T01570125 10157 20122
KLWA 181135Z AUTO 00000KT 10SM CLR 15/12 A3014 RMK AO2 T01460123
KLWA 181115Z AUTO 00000KT 10SM CLR 13/12 A3015 RMK AO2 T01310115
KLWA 181055Z AUTO 00000KT 10SM CLR 12/11 A3015 RMK AO2 T01220106
KLWA 181035Z AUTO 00000KT 10SM CLR 13/11 A3014 RMK AO2 T01280110
KLWA 181015Z AUTO 04003KT 10SM CLR 13/11 A3013 RMK AO2 T01270110
KLWA 180955Z AUTO 00000KT 10SM CLR 13/11 A3012 RMK AO2 T01320113
KLWA 180935Z AUTO 00000KT 10SM CLR 13/11 A3012 RMK AO2 T01300113
KLWA 180915Z AUTO 05003KT 10SM CLR 13/11 A3012 RMK AO2 T01310114
KLWA 180855Z AUTO 00000KT 10SM CLR 14/12 A3012 RMK AO2 T01350115
KLWA 180835Z AUTO 04003KT 10SM CLR 13/11 A3011 RMK AO2 T01330114
KLWA 180815Z AUTO 06004KT 10SM CLR 15/12 A3012 RMK AO2 T01450118
KLWA 180755Z AUTO 06004KT 10SM CLR 15/12 A3012 RMK AO2 T01470117
KLWA 180735Z AUTO 05003KT 10SM CLR 15/12 A3011 RMK AO2 T01500119